Time;durP1;ratioP1;P1;durP2;ratioP2;P2;SDS_P1;SDS_P2;PMS_P1;PMS_P2;Temp;Humidity;BMP_temperature;BMP_pressure;BME280_temperature;BME280_humidity;BME280_pressure;Samples;Min_cycle;Max_cycle;Signal;HPM_P1;HPM_P2
2021/10/18 00:01:14;;;;;;;3.90;3.45;;;;;;;;;;5094504;28;20204;-80
2021/10/18 00:03:43;;;;;;;3.40;3.10;;;;;;;;;;5094445;28;20208;-79
2021/10/18 00:06:10;;;;;;;3.78;3.00;;;;;;;;;;5094414;28;20563;-80
2021/10/18 00:08:38;;;;;;;3.85;3.50;;;;;;;;;;5094365;28;20232;-80
2021/10/18 00:11:06;;;;;;;3.65;3.05;;;;;;;;;;5093484;28;20219;-80
2021/10/18 00:13:33;;;;;;;3.42;3.13;;;;;;;;;;5093869;28;20181;-80
2021/10/18 00:16:01;;;;;;;4.25;3.92;;;;;;;;;;5094127;28;20204;-80
2021/10/18 00:18:29;;;;;;;3.53;3.20;;;;;;;;;;5094021;28;20231;-80
2021/10/18 00:20:57;;;;;;;2.70;2.50;;;;;;;;;;5094059;28;20582;-80
2021/10/18 00:23:25;;;;;;;3.45;3.00;;;;;;;;;;5093756;28;20211;-80
2021/10/18 00:25:53;;;;;;;3.75;3.45;;;;;;;;;;5094061;28;20211;-80
2021/10/18 00:28:21;;;;;;;2.55;2.40;;;;;;;;;;5094003;28;20220;-80
2021/10/18 00:30:48;;;;;;;3.33;3.03;;;;;;;;;;5093623;28;20725;-80
2021/10/18 00:33:16;;;;;;;4.20;3.33;;;;;;;;;;5094102;28;20287;-80
2021/10/18 00:35:43;;;;;;;3.33;3.00;;;;;;;;;;5093925;28;20207;-80
2021/10/18 00:38:12;;;;;;;3.25;2.95;;;;;;;;;;5093767;28;20230;-79
2021/10/18 00:40:40;;;;;;;3.60;2.47;;;;;;;;;;5093728;28;20185;-80
2021/10/18 00:43:07;;;;;;;5.13;3.05;;;;;;;;;;5094016;28;20574;-80
2021/10/18 00:45:35;;;;;;;3.28;2.97;;;;;;;;;;5093738;28;20200;-80
2021/10/18 00:48:03;;;;;;;4.57;3.35;;;;;;;;;;5093400;28;20220;-80
2021/10/18 00:50:30;;;;;;;3.08;2.78;;;;;;;;;;5093552;28;20195;-80
2021/10/18 00:52:59;;;;;;;2.90;2.67;;;;;;;;;;5093502;28;20189;-80
2021/10/18 00:55:28;;;;;;;3.30;3.00;;;;;;;;;;5093642;28;20208;-79
2021/10/18 00:57:56;;;;;;;3.40;3.10;;;;;;;;;;5092874;28;20690;-80
2021/10/18 01:00:23;;;;;;;5.22;3.47;;;;;;;;;;5093398;28;20200;-80
2021/10/18 01:02:51;;;;;;;5.55;3.33;;;;;;;;;;5093884;28;20184;-79
2021/10/18 01:05:18;;;;;;;4.57;3.15;;;;;;;;;;5093593;28;20729;-80
2021/10/18 01:07:47;;;;;;;4.65;3.78;;;;;;;;;;5093671;28;20220;-80
2021/10/18 01:10:14;;;;;;;3.70;3.40;;;;;;;;;;5093477;28;20200;-80
2021/10/18 01:12:43;;;;;;;3.95;3.08;;;;;;;;;;5094046;28;20552;-80
2021/10/18 01:15:10;;;;;;;3.05;2.80;;;;;;;;;;5093378;28;20203;-79
2021/10/18 01:17:39;;;;;;;2.47;2.28;;;;;;;;;;5093259;28;20227;-80
2021/10/18 01:20:11;;;;;;;3.28;2.97;;;;;;;;;;5093621;28;20193;-80
2021/10/18 01:22:41;;;;;;;3.00;2.70;;;;;;;;;;5093035;28;20205;-80
2021/10/18 01:25:09;;;;;;;2.38;2.17;;;;;;;;;;5093220;28;20196;-80
2021/10/18 01:27:36;;;;;;;2.65;2.20;;;;;;;;;;5093557;28;20278;-80
2021/10/18 01:30:06;;;;;;;3.58;2.75;;;;;;;;;;5092605;28;20227;-80
2021/10/18 01:32:33;;;;;;;3.25;2.95;;;;;;;;;;5093552;28;20215;-80
2021/10/18 01:35:01;;;;;;;2.63;2.30;;;;;;;;;;5093526;28;20188;-80
2021/10/18 01:37:28;;;;;;;3.25;2.50;;;;;;;;;;5093408;28;20228;-80
2021/10/18 01:39:57;;;;;;;2.75;2.55;;;;;;;;;;5096992;28;20200;-79
2021/10/18 01:42:25;;;;;;;2.90;2.60;;;;;;;;;;5096676;28;20214;-80
2021/10/18 01:44:52;;;;;;;2.33;2.13;;;;;;;;;;5096869;28;20215;-79
2021/10/18 01:47:19;;;;;;;1.58;1.48;;;;;;;;;;5096860;28;20690;-80
2021/10/18 01:49:47;;;;;;;3.25;2.20;;;;;;;;;;5096771;28;20188;-79
2021/10/18 01:52:14;;;;;;;1.70;1.60;;;;;;;;;;5096776;28;20205;-79
2021/10/18 01:54:42;;;;;;;1.48;1.38;;;;;;;;;;5096042;28;20570;-79
2021/10/18 01:57:11;;;;;;;1.90;1.65;;;;;;;;;;5095922;28;20193;-80
2021/10/18 01:59:38;;;;;;;1.23;1.23;;;;;;;;;;5096479;28;20220;-80
2021/10/18 02:02:05;;;;;;;1.40;1.30;;;;;;;;;;5096025;28;20662;-80
2021/10/18 02:04:33;;;;;;;1.50;1.40;;;;;;;;;;5097091;28;20195;-80
2021/10/18 02:07:00;;;;;;;1.50;1.20;;;;;;;;;;5096490;28;20185;-79
2021/10/18 02:09:28;;;;;;;1.65;1.55;;;;;;;;;;5095801;28;20216;-79
2021/10/18 02:11:55;;;;;;;2.10;1.40;;;;;;;;;;5096376;28;20573;-80
2021/10/18 02:14:24;;;;;;;1.48;1.38;;;;;;;;;;5096017;28;20196;-79
2021/10/18 02:16:52;;;;;;;1.73;1.63;;;;;;;;;;5095962;28;20200;-80
2021/10/18 02:19:19;;;;;;;1.67;1.50;;;;;;;;;;5095637;28;20247;-80
2021/10/18 02:21:47;;;;;;;2.05;1.30;;;;;;;;;;5095569;28;20227;-79
2021/10/18 02:24:14;;;;;;;1.65;1.55;;;;;;;;;;5095981;28;20188;-79
2021/10/18 02:26:41;;;;;;;2.38;2.13;;;;;;;;;;5096000;28;20188;-80
2021/10/18 02:29:09;;;;;;;3.20;1.80;;;;;;;;;;5095824;28;20220;-80
2021/10/18 02:31:38;;;;;;;1.85;1.60;;;;;;;;;;5095672;28;20258;-80
2021/10/18 02:34:06;;;;;;;1.70;1.60;;;;;;;;;;5096008;28;20192;-80
2021/10/18 02:36:33;;;;;;;1.65;1.55;;;;;;;;;;5095611;28;20204;-79
2021/10/18 02:39:01;;;;;;;2.13;1.90;;;;;;;;;;5095712;28;20704;-80
2021/10/18 02:41:28;;;;;;;2.08;1.98;;;;;;;;;;5095589;28;20189;-80
2021/10/18 02:43:55;;;;;;;2.35;1.80;;;;;;;;;;5095985;28;20204;-79
2021/10/18 02:46:23;;;;;;;1.90;1.80;;;;;;;;;;5095038;28;20204;-80
2021/10/18 02:48:52;;;;;;;1.70;1.60;;;;;;;;;;5095142;28;20242;-79
2021/10/18 02:51:19;;;;;;;1.60;1.50;;;;;;;;;;5095244;28;20181;-79
2021/10/18 02:53:47;;;;;;;2.53;1.98;;;;;;;;;;5093849;28;20200;-79
2021/10/18 02:56:14;;;;;;;2.42;2.22;;;;;;;;;;5094821;28;20211;-79
2021/10/18 02:58:42;;;;;;;1.88;1.70;;;;;;;;;;5095153;28;20229;-80
2021/10/18 03:01:09;;;;;;;1.55;1.45;;;;;;;;;;5094779;28;20207;-80
2021/10/18 03:03:38;;;;;;;2.45;1.75;;;;;;;;;;5093562;28;20200;-79
2021/10/18 03:06:06;;;;;;;1.50;1.40;;;;;;;;;;5094778;28;20200;-79
2021/10/18 03:08:34;;;;;;;2.20;1.70;;;;;;;;;;5095000;28;20216;-80
2021/10/18 03:11:02;;;;;;;1.50;1.40;;;;;;;;;;5094773;28;20207;-79
2021/10/18 03:13:29;;;;;;;1.23;1.23;;;;;;;;;;5095325;28;20582;-79
2021/10/18 03:15:56;;;;;;;1.85;1.75;;;;;;;;;;5094517;28;20204;-79
2021/10/18 03:18:24;;;;;;;2.10;1.98;;;;;;;;;;5094857;28;20232;-78
2021/10/18 03:20:51;;;;;;;1.75;1.23;;;;;;;;;;5094579;28;20206;-79
2021/10/18 03:23:20;;;;;;;1.70;1.60;;;;;;;;;;5094908;28;20197;-78
2021/10/18 03:25:49;;;;;;;2.42;2.22;;;;;;;;;;5094601;28;20204;-79
2021/10/18 03:28:16;;;;;;;1.45;1.35;;;;;;;;;;5094931;28;20217;-78
2021/10/18 03:30:43;;;;;;;1.60;1.50;;;;;;;;;;5094470;28;20239;-78
2021/10/18 03:33:11;;;;;;;1.70;1.60;;;;;;;;;;5094490;28;20200;-78
2021/10/18 03:35:38;;;;;;;1.10;1.10;;;;;;;;;;5094757;28;20191;-78
2021/10/18 03:38:06;;;;;;;1.60;1.50;;;;;;;;;;5094090;28;20227;-78
2021/10/18 03:40:35;;;;;;;1.20;1.20;;;;;;;;;;5094376;28;20207;-78
2021/10/18 03:43:02;;;;;;;1.70;1.60;;;;;;;;;;5094067;28;20200;-78
2021/10/18 03:45:30;;;;;;;1.90;1.80;;;;;;;;;;5094130;28;20201;-80
2021/10/18 03:47:59;;;;;;;1.80;1.70;;;;;;;;;;5094074;28;20230;-80
2021/10/18 03:50:26;;;;;;;1.63;1.52;;;;;;;;;;5094793;28;20180;-79
2021/10/18 03:52:54;;;;;;;1.80;1.70;;;;;;;;;;5094269;28;20180;-79
2021/10/18 03:55:21;;;;;;;2.38;2.20;;;;;;;;;;5094023;28;20543;-79
2021/10/18 03:57:50;;;;;;;2.13;1.92;;;;;;;;;;5093065;28;20220;-78
2021/10/18 04:00:18;;;;;;;2.20;2.10;;;;;;;;;;5093720;28;20220;-79
2021/10/18 04:02:45;;;;;;;2.10;2.00;;;;;;;;;;5094859;28;20218;-79
2021/10/18 04:05:13;;;;;;;1.77;1.67;;;;;;;;;;5094480;28;20200;-79
2021/10/18 04:07:46;;;;;;;2.28;2.17;;;;;;;;;;5094212;28;20229;-79
2021/10/18 04:10:15;;;;;;;1.88;1.77;;;;;;;;;;5094357;28;20188;-79
2021/10/18 04:12:43;;;;;;;1.30;1.30;;;;;;;;;;5094552;28;20197;-79
2021/10/18 04:15:12;;;;;;;1.63;1.52;;;;;;;;;;5093955;28;20196;-79
2021/10/18 04:17:40;;;;;;;1.23;1.23;;;;;;;;;;5094371;28;20180;-79
2021/10/18 04:20:09;;;;;;;1.70;1.60;;;;;;;;;;5093587;28;20236;-79
2021/10/18 04:22:36;;;;;;;1.80;1.70;;;;;;;;;;5093729;28;20239;-79
2021/10/18 04:25:05;;;;;;;2.33;2.22;;;;;;;;;;5093791;28;20208;-79
2021/10/18 04:27:32;;;;;;;2.90;2.70;;;;;;;;;;5093570;28;20193;-79
2021/10/18 04:30:00;;;;;;;2.58;2.38;;;;;;;;;;5093915;28;20235;-79
2021/10/18 04:32:28;;;;;;;1.73;1.63;;;;;;;;;;5094313;28;20203;-78
2021/10/18 04:34:56;;;;;;;1.63;1.52;;;;;;;;;;5093827;28;20207;-78
2021/10/18 04:37:23;;;;;;;1.70;1.60;;;;;;;;;;5093957;28;20200;-78
2021/10/18 04:39:51;;;;;;;1.50;1.40;;;;;;;;;;5093839;28;20230;-79
2021/10/18 04:42:18;;;;;;;1.50;1.40;;;;;;;;;;5093588;28;20206;-79
2021/10/18 04:44:46;;;;;;;1.90;1.80;;;;;;;;;;5093770;28;20211;-78
2021/10/18 04:47:13;;;;;;;1.90;1.80;;;;;;;;;;5094740;28;20204;-79
2021/10/18 04:49:42;;;;;;;1.80;1.70;;;;;;;;;;5095600;28;20228;-79
2021/10/18 04:52:09;;;;;;;1.60;1.50;;;;;;;;;;5093082;28;20203;-79
2021/10/18 04:54:37;;;;;;;1.80;1.70;;;;;;;;;;5094073;28;20189;-79
2021/10/18 04:57:05;;;;;;;1.75;1.65;;;;;;;;;;5093864;28;20204;-79
2021/10/18 04:59:32;;;;;;;1.83;1.73;;;;;;;;;;5087613;28;20915;-79
2021/10/18 05:02:00;;;;;;;1.70;1.60;;;;;;;;;;5093061;28;20184;-79
2021/10/18 05:04:27;;;;;;;1.65;1.55;;;;;;;;;;5093716;28;20203;-79
2021/10/18 05:06:56;;;;;;;1.35;1.35;;;;;;;;;;5093963;28;20216;-79
2021/10/18 05:09:23;;;;;;;1.88;1.77;;;;;;;;;;5094006;28;20228;-79
2021/10/18 05:11:51;;;;;;;1.90;1.80;;;;;;;;;;5093125;28;20200;-79
2021/10/18 05:14:18;;;;;;;1.67;1.58;;;;;;;;;;5097527;28;20200;-79
2021/10/18 05:16:46;;;;;;;2.00;1.90;;;;;;;;;;5098243;28;20195;-79
2021/10/18 05:19:13;;;;;;;1.77;1.67;;;;;;;;;;5097245;28;20226;-79
2021/10/18 05:21:41;;;;;;;2.80;1.90;;;;;;;;;;5097708;28;20573;-79
2021/10/18 05:24:10;;;;;;;2.17;1.98;;;;;;;;;;5097829;28;20204;-79
2021/10/18 05:26:37;;;;;;;2.88;2.60;;;;;;;;;;5097030;28;20181;-79
2021/10/18 05:29:04;;;;;;;2.45;2.30;;;;;;;;;;5095676;28;20228;-79
2021/10/18 05:31:32;;;;;;;2.83;2.63;;;;;;;;;;5089822;28;20228;-79
2021/10/18 05:33:59;;;;;;;2.65;2.30;;;;;;;;;;5076301;28;20597;-80
2021/10/18 05:36:27;;;;;;;2.15;2.03;;;;;;;;;;5075852;28;20201;-80
2021/10/18 05:38:55;;;;;;;2.03;1.92;;;;;;;;;;5076007;28;20225;-80
2021/10/18 05:41:23;;;;;;;2.15;2.05;;;;;;;;;;5077073;28;20641;-80
2021/10/18 05:43:51;;;;;;;2.10;1.90;;;;;;;;;;5077164;28;20216;-80
2021/10/18 05:46:19;;;;;;;2.13;2.03;;;;;;;;;;5089307;28;20570;-80
2021/10/18 05:48:46;;;;;;;2.08;1.92;;;;;;;;;;5106594;28;20222;-81
2021/10/18 05:51:13;;;;;;;1.80;1.70;;;;;;;;;;5107430;28;20192;-80
2021/10/18 05:53:41;;;;;;;1.50;1.40;;;;;;;;;;5107469;28;20197;-81
2021/10/18 05:56:09;;;;;;;2.20;2.08;;;;;;;;;;5105992;28;20237;-81
2021/10/18 05:58:38;;;;;;;1.70;1.60;;;;;;;;;;5108717;28;20227;-81
2021/10/18 06:01:05;;;;;;;1.70;1.60;;;;;;;;;;5105502;28;20224;-81
2021/10/18 06:03:32;;;;;;;1.85;1.75;;;;;;;;;;5097499;28;20185;-80
2021/10/18 06:06:02;;;;;;;1.63;1.52;;;;;;;;;;5097238;28;20231;-80
2021/10/18 06:08:30;;;;;;;2.15;1.95;;;;;;;;;;5097704;28;20220;-80
2021/10/18 06:10:57;;;;;;;2.30;2.20;;;;;;;;;;5097002;28;20215;-79
2021/10/18 06:13:24;;;;;;;2.00;1.90;;;;;;;;;;5097014;28;20199;-79
2021/10/18 06:15:56;;;;;;;1.70;1.60;;;;;;;;;;5096602;28;20273;-80
2021/10/18 06:18:24;;;;;;;1.65;1.55;;;;;;;;;;5105921;28;20220;-80
2021/10/18 06:20:53;;;;;;;1.60;1.50;;;;;;;;;;5104029;28;20220;-80
2021/10/18 06:23:23;;;;;;;1.50;1.40;;;;;;;;;;5104923;28;20199;-81
2021/10/18 06:25:51;;;;;;;1.88;1.77;;;;;;;;;;5112893;28;20199;-81
2021/10/18 06:28:18;;;;;;;2.10;2.00;;;;;;;;;;5104280;28;20710;-80
2021/10/18 06:30:46;;;;;;;1.83;1.73;;;;;;;;;;5103563;28;20224;-80
2021/10/18 06:33:15;;;;;;;2.00;1.90;;;;;;;;;;5106202;28;20563;-80
2021/10/18 06:35:43;;;;;;;2.22;2.13;;;;;;;;;;5101657;28;20184;-80
2021/10/18 06:38:11;;;;;;;1.83;1.73;;;;;;;;;;5107150;28;20207;-81
2021/10/18 06:40:39;;;;;;;1.45;1.42;;;;;;;;;;5104283;28;20197;-80
2021/10/18 06:43:06;;;;;;;2.08;1.63;;;;;;;;;;5104574;28;20681;-80
2021/10/18 06:45:34;;;;;;;1.63;1.52;;;;;;;;;;5104226;28;20192;-80
2021/10/18 06:48:02;;;;;;;1.88;1.77;;;;;;;;;;5101923;28;20215;-80
2021/10/18 06:50:32;;;;;;;1.77;1.67;;;;;;;;;;5104849;28;20195;-81
2021/10/18 06:53:00;;;;;;;1.80;1.70;;;;;;;;;;5105878;28;20199;-81
2021/10/18 06:55:28;;;;;;;1.73;1.63;;;;;;;;;;5104585;28;20214;-81
2021/10/18 06:57:56;;;;;;;1.88;1.77;;;;;;;;;;5103837;28;20224;-80
2021/10/18 07:00:24;;;;;;;1.92;1.83;;;;;;;;;;5103958;28;20192;-81
2021/10/18 07:02:51;;;;;;;1.98;1.88;;;;;;;;;;5104632;28;20207;-82
2021/10/18 07:05:19;;;;;;;1.75;1.65;;;;;;;;;;5105411;28;20188;-81
2021/10/18 07:07:48;;;;;;;1.70;1.60;;;;;;;;;;5102652;28;20215;-82
2021/10/18 07:10:15;;;;;;;2.35;2.15;;;;;;;;;;5106176;28;20201;-82
2021/10/18 07:12:45;;;;;;;2.42;2.33;;;;;;;;;;5101357;28;20196;-82
2021/10/18 07:15:12;;;;;;;2.42;2.33;;;;;;;;;;5104405;28;20195;-81
2021/10/18 07:17:39;;;;;;;2.55;2.35;;;;;;;;;;5105679;28;20954;-82
2021/10/18 07:20:10;;;;;;;2.50;2.30;;;;;;;;;;5104288;28;20188;-82
2021/10/18 07:22:43;;;;;;;2.53;2.33;;;;;;;;;;5103474;28;20209;-82
2021/10/18 07:25:14;;;;;;;2.33;2.13;;;;;;;;;;5102025;28;20200;-82
2021/10/18 07:27:43;;;;;;;2.80;2.60;;;;;;;;;;5105680;28;20219;-81
2021/10/18 07:30:11;;;;;;;2.38;2.28;;;;;;;;;;5103413;28;20592;-80
2021/10/18 07:32:42;;;;;;;2.22;2.08;;;;;;;;;;5102438;28;20191;-81
2021/10/18 07:35:10;;;;;;;3.28;3.05;;;;;;;;;;5102804;28;20291;-81
2021/10/18 07:37:40;;;;;;;2.70;2.50;;;;;;;;;;5104086;28;20207;-81
2021/10/18 07:40:13;;;;;;;2.58;2.38;;;;;;;;;;5102787;28;20290;-81
2021/10/18 07:42:41;;;;;;;2.05;1.95;;;;;;;;;;5104642;28;20755;-81
2021/10/18 07:45:10;;;;;;;2.33;2.22;;;;;;;;;;5103763;28;20185;-81
2021/10/18 07:47:37;;;;;;;2.10;2.00;;;;;;;;;;5104180;28;20220;-81
2021/10/18 07:50:10;;;;;;;2.22;2.13;;;;;;;;;;5103231;28;20192;-81
2021/10/18 07:52:38;;;;;;;4.00;3.60;;;;;;;;;;5103178;28;20619;-81
2021/10/18 07:55:12;;;;;;;2.58;2.38;;;;;;;;;;5102572;28;20193;-81
2021/10/18 07:57:41;;;;;;;2.75;2.55;;;;;;;;;;5103212;28;20194;-81
2021/10/18 08:00:11;;;;;;;2.90;2.70;;;;;;;;;;5104022;28;20200;-81
2021/10/18 08:02:38;;;;;;;4.00;3.53;;;;;;;;;;5102392;28;20204;-81
2021/10/18 08:05:07;;;;;;;2.88;2.67;;;;;;;;;;5095524;28;20200;-81
2021/10/18 08:07:37;;;;;;;2.65;2.45;;;;;;;;;;5095001;28;20185;-83
2021/10/18 08:10:07;;;;;;;2.65;2.45;;;;;;;;;;5095793;28;20188;-82
2021/10/18 08:12:37;;;;;;;2.80;2.60;;;;;;;;;;5099821;28;20577;-81
2021/10/18 08:15:06;;;;;;;2.25;2.05;;;;;;;;;;5095234;28;20200;-81
2021/10/18 08:17:36;;;;;;;2.28;2.17;;;;;;;;;;5101498;28;20191;-81
2021/10/18 08:20:06;;;;;;;2.38;2.17;;;;;;;;;;5115666;28;20191;-82
2021/10/18 08:22:34;;;;;;;3.60;3.30;;;;;;;;;;5106353;28;20240;-81
2021/10/18 08:25:01;;;;;;;2.85;2.25;;;;;;;;;;5101199;28;20191;-81
2021/10/18 08:27:28;;;;;;;2.95;2.67;;;;;;;;;;5104884;28;20196;-81
2021/10/18 08:29:56;;;;;;;2.38;2.25;;;;;;;;;;5103328;28;20222;-81
2021/10/18 08:32:25;;;;;;;2.92;2.72;;;;;;;;;;5105022;28;20197;-81
2021/10/18 08:34:52;;;;;;;2.58;2.40;;;;;;;;;;5101156;28;20677;-81
2021/10/18 08:37:20;;;;;;;3.17;2.88;;;;;;;;;;5103371;28;20787;-81
2021/10/18 08:40:02;;;;;;;3.25;3.00;;;;;;;;;;5105035;28;20664;-81
2021/10/18 08:42:41;;;;;;;3.55;3.25;;;;;;;;;;5099572;28;20586;-81
2021/10/18 08:45:09;;;;;;;3.80;3.50;;;;;;;;;;5099665;28;20192;-81
2021/10/18 08:47:39;;;;;;;3.60;3.30;;;;;;;;;;5097306;28;20290;-82
2021/10/18 08:50:09;;;;;;;3.50;3.20;;;;;;;;;;5098551;28;20201;-82
2021/10/18 08:52:40;;;;;;;4.32;3.15;;;;;;;;;;5104487;28;20197;-82
2021/10/18 08:55:09;;;;;;;4.13;3.72;;;;;;;;;;5116782;27;20642;-82
2021/10/18 08:57:37;;;;;;;3.55;3.25;;;;;;;;;;5100736;28;20681;-81
2021/10/18 09:00:07;;;;;;;4.00;3.70;;;;;;;;;;5105585;28;20196;-81
2021/10/18 09:02:40;;;;;;;3.58;3.35;;;;;;;;;;5107480;28;20231;-81
2021/10/18 09:05:09;;;;;;;3.58;3.28;;;;;;;;;;5106711;28;20200;-81
2021/10/18 09:07:39;;;;;;;4.25;3.85;;;;;;;;;;5105167;28;20220;-81
2021/10/18 09:10:13;;;;;;;3.28;2.97;;;;;;;;;;5106829;28;20183;-81
2021/10/18 09:12:41;;;;;;;3.40;2.83;;;;;;;;;;5108385;28;20680;-81
2021/10/18 09:15:23;;;;;;;2.90;2.70;;;;;;;;;;5107345;28;20666;-81
2021/10/18 09:17:56;;;;;;;5.00;4.60;;;;;;;;;;5103613;28;20223;-82
2021/10/18 09:20:27;;;;;;;3.80;3.50;;;;;;;;;;5106061;28;20191;-82
2021/10/18 09:23:15;;;;;;;5.18;4.68;;;;;;;;;;5104323;28;20470;-82
2021/10/18 09:25:43;;;;;;;3.53;3.22;;;;;;;;;;5103464;28;20210;-82
2021/10/18 09:28:12;;;;;;;3.38;3.08;;;;;;;;;;5105849;28;20222;-81
2021/10/18 09:30:42;;;;;;;4.93;4.15;;;;;;;;;;5105756;28;20220;-82
2021/10/18 09:33:23;;;;;;;5.25;4.75;;;;;;;;;;5104465;28;20192;-82
2021/10/18 09:35:51;;;;;;;4.00;3.70;;;;;;;;;;5105026;28;20199;-82
2021/10/18 09:38:21;;;;;;;3.90;3.60;;;;;;;;;;5105633;28;20705;-82
2021/10/18 09:40:49;;;;;;;3.90;3.60;;;;;;;;;;5107675;28;20225;-82
2021/10/18 09:43:26;;;;;;;4.30;3.90;;;;;;;;;;5104964;28;20223;-83
2021/10/18 09:46:07;;;;;;;3.75;3.45;;;;;;;;;;5105502;28;20199;-82
2021/10/18 10:51:36;;;;;;;2.42;2.22;;;;;;;;;;5103658;28;20196;-82
2021/10/18 10:54:06;;;;;;;4.43;2.30;;;;;;;;;;5105821;28;20248;-83
2021/10/18 10:56:43;;;;;;;2.88;2.15;;;;;;;;;;5104793;28;20199;-82
2021/10/18 10:59:22;;;;;;;3.03;2.20;;;;;;;;;;5104571;28;20249;-82
2021/10/18 11:01:56;;;;;;;3.47;3.17;;;;;;;;;;5097332;28;20654;-82
2021/10/18 11:04:44;;;;;;;3.10;2.70;;;;;;;;;;5105159;28;20211;-82
2021/10/18 11:07:15;;;;;;;3.30;3.00;;;;;;;;;;5102626;28;20196;-83
2021/10/18 11:09:46;;;;;;;3.72;2.38;;;;;;;;;;5105813;27;20210;-82
2021/10/18 11:12:25;;;;;;;2.83;2.63;;;;;;;;;;5104073;28;20188;-82
2021/10/18 11:15:00;;;;;;;4.30;3.08;;;;;;;;;;5104530;28;20191;-82
2021/10/18 11:17:30;;;;;;;4.25;3.53;;;;;;;;;;5097379;28;20184;-83
2021/10/18 11:20:00;;;;;;;4.53;2.97;;;;;;;;;;5095055;28;20197;-82
2021/10/18 11:22:31;;;;;;;3.75;3.08;;;;;;;;;;5095685;28;20196;-82
2021/10/18 11:25:01;;;;;;;4.88;4.47;;;;;;;;;;5094950;28;20177;-83
2021/10/18 11:27:31;;;;;;;4.47;4.07;;;;;;;;;;5094231;28;20185;-82
2021/10/18 11:30:02;;;;;;;3.13;2.85;;;;;;;;;;5095518;28;20568;-83
2021/10/18 11:32:31;;;;;;;3.45;3.15;;;;;;;;;;5095668;28;20681;-82
2021/10/18 11:35:14;;;;;;;3.67;3.38;;;;;;;;;;5095112;28;20649;-81
2021/10/18 11:38:05;;;;;;;3.47;2.95;;;;;;;;;;5106277;28;20697;-82
2021/10/18 11:40:36;;;;;;;3.30;2.53;;;;;;;;;;5096092;28;20203;-82
2021/10/18 11:43:06;;;;;;;4.38;3.65;;;;;;;;;;5104881;28;20211;-82
2021/10/18 11:45:36;;;;;;;2.65;2.45;;;;;;;;;;5104216;28;20579;-83
2021/10/18 11:48:09;;;;;;;2.63;2.42;;;;;;;;;;5102689;28;20212;-83
2021/10/18 11:50:37;;;;;;;3.17;2.97;;;;;;;;;;5102884;28;20192;-82
2021/10/18 11:53:13;;;;;;;3.53;2.67;;;;;;;;;;5101979;28;20206;-82
2021/10/18 11:55:43;;;;;;;2.67;2.47;;;;;;;;;;5102953;28;20287;-82
2021/10/18 11:58:11;;;;;;;3.17;2.88;;;;;;;;;;5103627;28;20221;-82
2021/10/18 12:00:44;;;;;;;3.63;3.33;;;;;;;;;;5104281;28;20208;-83
2021/10/18 12:03:15;;;;;;;3.10;2.80;;;;;;;;;;5101189;28;20215;-82
2021/10/18 12:05:44;;;;;;;3.63;3.30;;;;;;;;;;5101748;28;20681;-82
2021/10/18 12:08:14;;;;;;;3.35;3.05;;;;;;;;;;5103001;28;20212;-82
2021/10/18 12:10:44;;;;;;;5.32;3.38;;;;;;;;;;5104284;28;20558;-82
2021/10/18 12:13:21;;;;;;;3.75;3.45;;;;;;;;;;5100278;28;20207;-82
2021/10/18 12:15:59;;;;;;;4.68;3.88;;;;;;;;;;5095417;28;20185;-83
2021/10/18 12:18:29;;;;;;;4.40;4.00;;;;;;;;;;5093581;28;20310;-82
2021/10/18 12:21:00;;;;;;;3.85;3.42;;;;;;;;;;5093293;28;20203;-81
2021/10/18 12:23:30;;;;;;;4.15;3.40;;;;;;;;;;5094600;28;20228;-82
2021/10/18 12:26:12;;;;;;;5.90;4.05;;;;;;;;;;5094388;28;20200;-81
2021/10/18 12:28:44;;;;;;;4.22;3.80;;;;;;;;;;5094428;28;20698;-82
2021/10/18 12:31:33;;;;;;;4.72;3.83;;;;;;;;;;5094200;28;20232;-83
2021/10/18 12:34:37;;;;;;;4.35;3.95;;;;;;;;;;5094176;28;20268;-81
2021/10/18 12:37:08;;;;;;;4.45;3.90;;;;;;;;;;5082702;28;20570;-82
2021/10/18 12:39:46;;;;;;;4.20;3.80;;;;;;;;;;5095065;28;20261;-82
2021/10/18 12:42:44;;;;;;;4.25;3.45;;;;;;;;;;5094091;28;20204;-82
2021/10/18 12:45:14;;;;;;;4.80;4.05;;;;;;;;;;5093013;28;20216;-83
2021/10/18 12:47:48;;;;;;;4.88;4.10;;;;;;;;;;5093664;28;20736;-82
2021/10/18 12:50:19;;;;;;;4.75;4.35;;;;;;;;;;5094171;28;20184;-82
2021/10/18 12:52:53;;;;;;;5.13;4.35;;;;;;;;;;5089849;28;20698;-83
2021/10/18 12:55:23;;;;;;;6.22;5.55;;;;;;;;;;5086310;28;20201;-80
2021/10/18 12:57:54;;;;;;;6.43;5.72;;;;;;;;;;5103674;28;20297;-82
2021/10/18 13:00:28;;;;;;;5.10;4.60;;;;;;;;;;5102932;28;20191;-83
2021/10/18 13:02:56;;;;;;;4.85;4.35;;;;;;;;;;5099950;28;20196;-82
2021/10/18 13:05:24;;;;;;;4.38;3.97;;;;;;;;;;5102492;28;20211;-83
2021/10/18 13:07:58;;;;;;;5.18;4.68;;;;;;;;;;5103912;28;20211;-82
2021/10/18 13:10:29;;;;;;;5.35;4.85;;;;;;;;;;5103237;28;20555;-80
2021/10/18 13:12:59;;;;;;;7.55;6.00;;;;;;;;;;5099558;28;20200;-81
2021/10/18 13:15:27;;;;;;;7.03;6.43;;;;;;;;;;5102099;28;20587;-80
2021/10/18 13:17:55;;;;;;;7.35;5.88;;;;;;;;;;5098590;28;20745;-79
2021/10/18 13:20:26;;;;;;;7.55;5.47;;;;;;;;;;5102335;28;20191;-80
2021/10/18 13:22:55;;;;;;;6.55;5.88;;;;;;;;;;5103519;28;20192;-80
2021/10/18 13:25:25;;;;;;;7.35;6.53;;;;;;;;;;5102469;28;20212;-80
2021/10/18 13:27:53;;;;;;;7.45;6.05;;;;;;;;;;5101098;28;20594;-81
2021/10/18 13:30:22;;;;;;;8.00;7.03;;;;;;;;;;5102701;28;20728;-80
2021/10/18 13:32:51;;;;;;;7.05;5.25;;;;;;;;;;5103538;28;20204;-79
2021/10/18 13:35:19;;;;;;;7.45;6.70;;;;;;;;;;5105528;28;20592;-80
2021/10/18 13:37:47;;;;;;;7.20;5.70;;;;;;;;;;5105298;28;20314;-80
2021/10/18 13:40:16;;;;;;;9.90;7.10;;;;;;;;;;5102677;28;20200;-80
2021/10/18 13:42:45;;;;;;;6.70;5.97;;;;;;;;;;5106244;28;20207;-81
2021/10/18 13:45:15;;;;;;;6.75;6.10;;;;;;;;;;5107672;28;20207;-80
2021/10/18 13:47:44;;;;;;;6.93;6.20;;;;;;;;;;5106869;28;20224;-79
2021/10/18 13:50:12;;;;;;;8.25;7.38;;;;;;;;;;5104767;27;20196;-79
2021/10/18 13:52:41;;;;;;;8.07;7.25;;;;;;;;;;5103823;28;20200;-79
2021/10/18 13:55:11;;;;;;;8.55;6.93;;;;;;;;;;5107501;28;20195;-80
2021/10/18 13:57:39;;;;;;;5.63;5.03;;;;;;;;;;5103252;28;20199;-79
2021/10/18 14:00:09;;;;;;;6.93;6.22;;;;;;;;;;5105769;28;20187;-80
2021/10/18 14:02:37;;;;;;;6.30;5.45;;;;;;;;;;5105477;28;20689;-80
2021/10/18 14:05:06;;;;;;;5.88;5.35;;;;;;;;;;5107748;28;20678;-81
2021/10/18 14:07:34;;;;;;;7.32;6.30;;;;;;;;;;5099206;28;20197;-80
2021/10/18 14:10:01;;;;;;;7.97;6.88;;;;;;;;;;5095655;28;20204;-81
2021/10/18 14:12:29;;;;;;;8.70;7.30;;;;;;;;;;5096146;28;20204;-80
2021/10/18 14:14:56;;;;;;;7.10;6.40;;;;;;;;;;5096453;28;20210;-81
2021/10/18 14:17:23;;;;;;;8.25;7.45;;;;;;;;;;5096842;28;20200;-82
2021/10/18 14:19:51;;;;;;;7.80;7.07;;;;;;;;;;5100139;28;20574;-80
2021/10/18 14:22:20;;;;;;;10.77;9.70;;;;;;;;;;5105199;27;20809;-81
2021/10/18 14:24:48;;;;;;;9.77;7.88;;;;;;;;;;5110394;28;20203;-82
2021/10/18 14:27:15;;;;;;;7.65;6.85;;;;;;;;;;5105565;28;20193;-81
2021/10/18 14:29:42;;;;;;;8.93;7.82;;;;;;;;;;5104981;28;20231;-82
2021/10/18 14:32:10;;;;;;;9.85;8.80;;;;;;;;;;5103610;28;20204;-84
2021/10/18 14:34:37;;;;;;;9.60;8.43;;;;;;;;;;5104530;28;20210;-84
2021/10/18 14:37:05;;;;;;;9.05;7.53;;;;;;;;;;5107515;28;20199;-82
2021/10/18 14:39:34;;;;;;;7.93;6.80;;;;;;;;;;5106652;28;20226;-83
2021/10/18 14:42:04;;;;;;;8.48;6.95;;;;;;;;;;5106032;28;20267;-81
2021/10/18 14:44:33;;;;;;;8.63;7.78;;;;;;;;;;5112301;28;20196;-81
2021/10/18 14:47:01;;;;;;;10.52;8.75;;;;;;;;;;5117628;28;20203;-82
2021/10/18 14:49:28;;;;;;;10.48;8.60;;;;;;;;;;5117344;28;20235;-81
2021/10/18 14:51:56;;;;;;;9.32;8.27;;;;;;;;;;5117594;28;20203;-82
2021/10/18 14:54:23;;;;;;;10.48;9.38;;;;;;;;;;5117408;28;20654;-83
2021/10/18 14:56:52;;;;;;;13.30;9.50;;;;;;;;;;5117342;28;20199;-81
2021/10/18 14:59:19;;;;;;;10.85;8.73;;;;;;;;;;5116383;28;20229;-81
2021/10/18 15:01:47;;;;;;;12.38;8.15;;;;;;;;;;5117540;28;20199;-82
2021/10/18 15:04:15;;;;;;;9.52;8.18;;;;;;;;;;5119110;28;20186;-82
2021/10/18 15:06:42;;;;;;;12.23;9.13;;;;;;;;;;5116903;28;20207;-83
2021/10/18 15:09:10;;;;;;;10.18;9.18;;;;;;;;;;5118191;28;20219;-80
2021/10/18 15:11:38;;;;;;;11.68;10.45;;;;;;;;;;5116427;28;20188;-80
2021/10/18 15:14:07;;;;;;;10.73;9.40;;;;;;;;;;5115725;28;20190;-82
2021/10/18 15:16:35;;;;;;;10.10;8.80;;;;;;;;;;5116344;28;20260;-82
2021/10/18 15:19:03;;;;;;;10.00;8.30;;;;;;;;;;5114899;28;20303;-81
2021/10/18 15:21:30;;;;;;;10.18;9.15;;;;;;;;;;5115620;28;20388;-80
2021/10/18 15:23:58;;;;;;;9.07;8.00;;;;;;;;;;5116037;28;20199;-79
2021/10/18 15:26:25;;;;;;;11.02;9.13;;;;;;;;;;5115707;28;20259;-80
2021/10/18 15:28:53;;;;;;;9.55;8.63;;;;;;;;;;5115765;28;20818;-81
2021/10/18 15:31:22;;;;;;;15.13;12.60;;;;;;;;;;5114984;28;20440;-81
2021/10/18 15:33:50;;;;;;;10.93;9.38;;;;;;;;;;5115223;28;20286;-81
2021/10/18 15:36:17;;;;;;;12.25;10.13;;;;;;;;;;5115097;28;20207;-82
2021/10/18 15:38:45;;;;;;;14.10;11.15;;;;;;;;;;5115272;28;20256;-80
2021/10/18 15:41:12;;;;;;;13.45;10.73;;;;;;;;;;5114930;28;20207;-80
2021/10/18 15:43:40;;;;;;;12.60;10.05;;;;;;;;;;5115013;28;20184;-82
2021/10/18 15:46:07;;;;;;;10.95;9.75;;;;;;;;;;5115493;28;20580;-81
2021/10/18 15:48:37;;;;;;;10.93;9.18;;;;;;;;;;5115142;28;20211;-82
2021/10/18 15:51:05;;;;;;;11.68;9.70;;;;;;;;;;5115071;28;20244;-81
2021/10/18 15:53:33;;;;;;;15.80;10.25;;;;;;;;;;5115004;28;20646;-80
2021/10/18 15:56:02;;;;;;;12.77;10.15;;;;;;;;;;5112835;28;20196;-81